createdAt,value
2022-09-17T00:01:11.000Z,92.1
2022-09-17T00:02:28.000Z,92.1
2022-09-17T00:03:44.000Z,92.5
2022-09-17T00:05:00.000Z,92.6
2022-09-17T00:06:17.000Z,92.5
2022-09-17T00:07:33.000Z,92.1
2022-09-17T00:08:49.000Z,92.2
2022-09-17T00:10:05.000Z,92.5
2022-09-17T00:11:22.000Z,92.7
2022-09-17T00:12:37.000Z,92.6
2022-09-17T00:15:10.000Z,92.1
2022-09-17T00:16:26.000Z,92.4
2022-09-17T00:18:58.000Z,93.2
2022-09-17T00:20:15.000Z,93
2022-09-17T00:21:31.000Z,93.2
2022-09-17T00:22:47.000Z,93.2
2022-09-17T00:24:04.000Z,93
2022-09-17T00:25:20.000Z,92.6
2022-09-17T00:26:36.000Z,92.8
2022-09-17T00:27:52.000Z,92.7
2022-09-17T00:29:08.000Z,92.5
2022-09-17T00:30:24.000Z,92.3
2022-09-17T00:31:40.000Z,92
2022-09-17T00:32:57.000Z,92
2022-09-17T00:34:13.000Z,92.2
2022-09-17T00:35:29.000Z,91.8
2022-09-17T00:36:45.000Z,91.6
2022-09-17T00:38:02.000Z,92
2022-09-17T00:39:18.000Z,92.6
2022-09-17T00:40:34.000Z,92.9
2022-09-17T00:41:51.000Z,92.4
2022-09-17T00:43:07.000Z,92.5
2022-09-17T00:44:23.000Z,92.5
2022-09-17T00:45:38.000Z,92
2022-09-17T00:46:55.000Z,92.4
2022-09-17T00:48:11.000Z,92.4
2022-09-17T00:49:27.000Z,92.6
2022-09-17T00:50:44.000Z,93
2022-09-17T00:52:00.000Z,93.5
2022-09-17T00:53:16.000Z,93.4
2022-09-17T00:54:32.000Z,93.8
2022-09-17T00:55:49.000Z,93.6
2022-09-17T00:57:05.000Z,93.7
2022-09-17T00:58:21.000Z,93.3
2022-09-17T00:59:38.000Z,93.3
2022-09-17T01:00:54.000Z,93.7
2022-09-17T01:02:09.000Z,93.1
2022-09-17T01:03:26.000Z,93.1
2022-09-17T01:05:58.000Z,93.4
2022-09-17T01:07:14.000Z,93
2022-09-17T01:08:31.000Z,92.2
2022-09-17T01:09:47.000Z,92.2
2022-09-17T01:11:03.000Z,92.5
2022-09-17T01:12:20.000Z,92.4
2022-09-17T01:14:52.000Z,91.6
2022-09-17T01:16:08.000Z,92.1
2022-09-17T01:17:25.000Z,92.4
2022-09-17T01:18:40.000Z,92.6
2022-09-17T01:19:56.000Z,91.7
2022-09-17T01:21:13.000Z,91.6
2022-09-17T01:22:29.000Z,91.8
2022-09-17T01:23:45.000Z,91.5
2022-09-17T01:25:01.000Z,91.4
2022-09-17T01:26:18.000Z,91.5
2022-09-17T01:27:34.000Z,92.1
2022-09-17T01:28:50.000Z,91.9
2022-09-17T01:30:07.000Z,91.9
2022-09-17T01:31:23.000Z,91.8
2022-09-17T01:32:39.000Z,91.5
2022-09-17T01:33:55.000Z,91.6
2022-09-17T01:35:11.000Z,91.3
2022-09-17T01:36:27.000Z,91.1
2022-09-17T01:39:00.000Z,92.1
2022-09-17T01:40:16.000Z,91.9
2022-09-17T01:41:32.000Z,92
2022-09-17T01:42:48.000Z,91.4
2022-09-17T01:44:05.000Z,90.8
2022-09-17T01:45:21.000Z,91
2022-09-17T01:46:37.000Z,90.7
2022-09-17T01:47:54.000Z,90.3
2022-09-17T01:49:10.000Z,90.8
2022-09-17T01:50:26.000Z,90.6
2022-09-17T01:51:41.000Z,90.7
2022-09-17T01:52:58.000Z,90.8
2022-09-17T01:54:14.000Z,90.6
2022-09-17T01:56:47.000Z,90.4
2022-09-17T01:58:03.000Z,90.4
2022-09-17T01:59:19.000Z,90
2022-09-17T02:00:35.000Z,89.5
2022-09-17T02:01:52.000Z,90
2022-09-17T02:03:08.000Z,90.6
2022-09-17T02:04:24.000Z,90.2
2022-09-17T02:05:41.000Z,90.4
2022-09-17T02:06:57.000Z,90.4
2022-09-17T02:08:12.000Z,90.7
2022-09-17T02:09:29.000Z,90.7
2022-09-17T02:10:45.000Z,90.5
2022-09-17T02:12:01.000Z,90.1
2022-09-17T02:13:17.000Z,90.1
2022-09-17T02:14:34.000Z,90.1
2022-09-17T02:15:50.000Z,89.8
2022-09-17T02:17:06.000Z,89.9
2022-09-17T02:18:23.000Z,89.8
2022-09-17T02:19:39.000Z,89.7
2022-09-17T02:20:55.000Z,90.4
2022-09-17T02:23:28.000Z,90.8
2022-09-17T02:24:43.000Z,90.4
2022-09-17T02:25:59.000Z,90.4
2022-09-17T02:27:16.000Z,90.5
2022-09-17T02:28:32.000Z,91
2022-09-17T02:29:48.000Z,90.8
2022-09-17T02:31:04.000Z,90.7
2022-09-17T02:32:21.000Z,91.1
2022-09-17T02:34:53.000Z,91.1
2022-09-17T02:36:10.000Z,90.6
2022-09-17T02:37:26.000Z,90.8
2022-09-17T02:38:42.000Z,91
2022-09-17T02:39:58.000Z,91
2022-09-17T02:41:14.000Z,91.2
2022-09-17T02:42:30.000Z,91.3
2022-09-17T02:45:03.000Z,91.4
2022-09-17T02:46:18.000Z,91.3
2022-09-17T02:47:33.000Z,90.6
2022-09-17T02:48:50.000Z,90.5
2022-09-17T02:50:06.000Z,90.5
2022-09-17T02:51:22.000Z,90.1
2022-09-17T02:52:38.000Z,90.1
2022-09-17T02:53:55.000Z,90.1
2022-09-17T02:55:11.000Z,89.9
2022-09-17T02:56:27.000Z,90.2
2022-09-17T02:57:44.000Z,90.1
2022-09-17T02:59:00.000Z,90
2022-09-17T03:00:15.000Z,89.9
2022-09-17T03:01:30.000Z,90.5
2022-09-17T03:02:47.000Z,90.8
2022-09-17T03:04:03.000Z,90.4
2022-09-17T03:05:19.000Z,90.1
2022-09-17T03:06:36.000Z,90.5
2022-09-17T03:07:52.000Z,91.3
2022-09-17T03:09:08.000Z,91.1
2022-09-17T03:10:24.000Z,90.4
2022-09-17T03:12:57.000Z,90.8
2022-09-17T03:14:13.000Z,90.4
2022-09-17T03:15:30.000Z,90.2
2022-09-17T03:16:46.000Z,90.7
2022-09-17T03:18:01.000Z,90.5
2022-09-17T03:19:17.000Z,90.6
2022-09-17T03:20:34.000Z,90.4
2022-09-17T03:21:50.000Z,90.5
2022-09-17T03:23:06.000Z,90.4
2022-09-17T03:24:23.000Z,90.3
2022-09-17T03:25:39.000Z,90.3
2022-09-17T03:26:55.000Z,89.7
2022-09-17T03:29:28.000Z,90.3
2022-09-17T03:30:44.000Z,90.2
2022-09-17T03:32:00.000Z,90.2
2022-09-17T03:33:17.000Z,90.4
2022-09-17T03:34:32.000Z,90.3
2022-09-17T03:35:48.000Z,90.2
2022-09-17T03:37:04.000Z,90.1
2022-09-17T03:38:21.000Z,89.9
2022-09-17T03:39:37.000Z,89.6
2022-09-17T03:40:53.000Z,89.6
2022-09-17T03:42:10.000Z,89.6
2022-09-17T03:43:26.000Z,89.4
2022-09-17T03:44:42.000Z,89.5
2022-09-17T03:45:59.000Z,89.4
2022-09-17T03:47:15.000Z,89.8
2022-09-17T03:48:31.000Z,89.8
2022-09-17T03:49:47.000Z,89.5
2022-09-17T03:51:03.000Z,89
2022-09-17T03:52:19.000Z,89.1
2022-09-17T03:53:35.000Z,88.7
2022-09-17T03:54:52.000Z,88.7
2022-09-17T03:56:08.000Z,88.6
2022-09-17T03:57:24.000Z,88.7
2022-09-17T03:58:40.000Z,89.2
2022-09-17T04:01:13.000Z,88.9
2022-09-17T04:03:46.000Z,89.1
2022-09-17T04:05:02.000Z,88.9
2022-09-17T04:06:18.000Z,88.6
2022-09-17T04:07:34.000Z,88.7
2022-09-17T04:08:50.000Z,88
2022-09-17T04:10:06.000Z,88.3
2022-09-17T04:11:22.000Z,88.3
2022-09-17T04:12:39.000Z,88.7
2022-09-17T04:13:55.000Z,88.3
2022-09-17T04:15:11.000Z,88.4
2022-09-17T04:16:27.000Z,88.7
2022-09-17T04:17:44.000Z,88.8
2022-09-17T04:19:00.000Z,89
2022-09-17T04:20:16.000Z,88.9
2022-09-17T04:21:33.000Z,89
2022-09-17T04:22:49.000Z,88.8
2022-09-17T04:24:05.000Z,89.3
2022-09-17T04:25:20.000Z,89.1
2022-09-17T04:26:37.000Z,88.6
2022-09-17T04:29:09.000Z,88.6
2022-09-17T04:30:26.000Z,88.8
2022-09-17T04:32:58.000Z,88.8
2022-09-17T04:34:14.000Z,88.4
2022-09-17T04:35:31.000Z,88.2
2022-09-17T04:36:47.000Z,88.3
2022-09-17T04:39:19.000Z,87.8
2022-09-17T04:40:35.000Z,88.2
2022-09-17T04:41:50.000Z,88.3
2022-09-17T04:43:06.000Z,88.4
2022-09-17T04:44:23.000Z,87.4
2022-09-17T04:45:39.000Z,87.8
2022-09-17T04:46:55.000Z,88.3
2022-09-17T04:48:11.000Z,88.1
2022-09-17T04:49:27.000Z,87.9
2022-09-17T04:50:44.000Z,87.7
2022-09-17T04:52:00.000Z,88
2022-09-17T04:54:32.000Z,87.8
2022-09-17T04:55:49.000Z,87.7
2022-09-17T04:57:05.000Z,87.7
2022-09-17T04:58:20.000Z,88
2022-09-17T04:59:36.000Z,88
2022-09-17T05:00:53.000Z,87.3
2022-09-17T05:02:09.000Z,87.1
2022-09-17T05:03:25.000Z,87.3
2022-09-17T05:04:41.000Z,87.3
2022-09-17T05:05:58.000Z,86.7
2022-09-17T05:07:14.000Z,87
2022-09-17T05:09:45.000Z,86.7
2022-09-17T05:11:00.000Z,86.5
2022-09-17T05:12:17.000Z,86
2022-09-17T05:13:33.000Z,85.8
2022-09-17T05:14:49.000Z,86.5
2022-09-17T05:16:05.000Z,86.7
2022-09-17T05:17:22.000Z,87
2022-09-17T05:18:38.000Z,87.2
2022-09-17T05:19:54.000Z,87
2022-09-17T05:21:09.000Z,87.2
2022-09-17T05:22:26.000Z,87
2022-09-17T05:23:41.000Z,86.3
2022-09-17T05:24:57.000Z,86.2
2022-09-17T05:26:13.000Z,86.1
2022-09-17T05:27:30.000Z,85.9
2022-09-17T05:28:46.000Z,85.8
2022-09-17T05:30:02.000Z,86
2022-09-17T05:32:34.000Z,86.3
2022-09-17T05:33:51.000Z,86.2
2022-09-17T05:35:07.000Z,85.9
2022-09-17T05:36:23.000Z,85.9
2022-09-17T05:37:39.000Z,85.7
2022-09-17T05:38:56.000Z,85.9
2022-09-17T05:40:11.000Z,86.4
2022-09-17T05:41:27.000Z,85.9
2022-09-17T05:42:43.000Z,85.9
2022-09-17T05:44:00.000Z,85.9
2022-09-17T05:45:16.000Z,85.7
2022-09-17T05:46:32.000Z,85.8
2022-09-17T05:47:48.000Z,86.3
2022-09-17T05:49:05.000Z,86.8
2022-09-17T05:50:21.000Z,86.5
2022-09-17T05:51:37.000Z,86.7
2022-09-17T05:52:53.000Z,86.3
2022-09-17T05:54:09.000Z,86.1
2022-09-17T05:55:26.000Z,86.2
2022-09-17T05:56:41.000Z,85.8
2022-09-17T05:57:57.000Z,86
2022-09-17T05:59:13.000Z,86
2022-09-17T06:00:30.000Z,86
2022-09-17T06:01:46.000Z,86.8
2022-09-17T06:03:02.000Z,86.7
2022-09-17T06:04:18.000Z,86.3
2022-09-17T06:05:35.000Z,86
2022-09-17T06:06:51.000Z,85.7
2022-09-17T06:08:07.000Z,85.9
2022-09-17T06:10:40.000Z,86.2
2022-09-17T06:11:56.000Z,86.2
2022-09-17T06:13:11.000Z,86
2022-09-17T06:14:27.000Z,86
2022-09-17T06:15:43.000Z,85.6
2022-09-17T06:17:00.000Z,85.5
2022-09-17T06:18:16.000Z,85.8
2022-09-17T06:19:32.000Z,85.7
2022-09-17T06:20:48.000Z,85.5
2022-09-17T06:22:05.000Z,85.1
2022-09-17T06:23:21.000Z,85.7
2022-09-17T06:24:37.000Z,84.9
2022-09-17T06:25:53.000Z,85.1
2022-09-17T06:27:10.000Z,84.9
2022-09-17T06:28:26.000Z,84.5
2022-09-17T06:29:41.000Z,84.6
2022-09-17T06:30:57.000Z,84.6
2022-09-17T06:32:14.000Z,85.2
2022-09-17T06:33:30.000Z,85.3
2022-09-17T06:34:46.000Z,84.6
2022-09-17T06:36:02.000Z,83.9
2022-09-17T06:37:18.000Z,83.6
2022-09-17T06:38:35.000Z,83
2022-09-17T06:39:51.000Z,82.1
2022-09-17T06:41:07.000Z,81.8
2022-09-17T06:42:23.000Z,81
2022-09-17T06:43:40.000Z,81.8
2022-09-17T06:44:56.000Z,79.8
2022-09-17T06:46:12.000Z,78
2022-09-17T06:48:44.000Z,78.2
2022-09-17T06:50:00.000Z,77.4
2022-09-17T06:51:16.000Z,75.7
2022-09-17T06:52:32.000Z,74.5
2022-09-17T06:55:05.000Z,76.1
2022-09-17T06:56:21.000Z,75.9
2022-09-17T06:57:37.000Z,76.6
2022-09-17T06:58:53.000Z,77
2022-09-17T07:01:26.000Z,76.7
2022-09-17T07:02:41.000Z,78.3
2022-09-17T07:03:56.000Z,79
2022-09-17T07:05:13.000Z,79.1
2022-09-17T07:06:29.000Z,78.4
2022-09-17T07:07:45.000Z,76.3
2022-09-17T07:09:01.000Z,76.8
2022-09-17T07:10:18.000Z,77.5
2022-09-17T07:11:34.000Z,78.9
2022-09-17T07:12:50.000Z,78.7
2022-09-17T07:14:06.000Z,79.1
2022-09-17T07:15:23.000Z,79.5
2022-09-17T07:16:38.000Z,79
2022-09-17T07:17:53.000Z,78.9
2022-09-17T07:19:09.000Z,78.3
2022-09-17T07:20:25.000Z,78.9
2022-09-17T07:21:42.000Z,77.8
2022-09-17T07:22:58.000Z,77.5
2022-09-17T07:24:14.000Z,78.2
2022-09-17T07:25:30.000Z,78.1
2022-09-17T07:26:47.000Z,76.4
2022-09-17T07:28:03.000Z,76.7
2022-09-17T07:29:19.000Z,76.8
2022-09-17T07:30:35.000Z,77
2022-09-17T07:31:52.000Z,77.1
2022-09-17T07:33:08.000Z,76.8
2022-09-17T07:34:23.000Z,77.2
2022-09-17T07:35:39.000Z,76.9
2022-09-17T07:36:56.000Z,75.9
2022-09-17T07:39:28.000Z,75.7
2022-09-17T07:40:44.000Z,75.4
2022-09-17T07:42:00.000Z,76.1
2022-09-17T07:43:17.000Z,76.3
2022-09-17T07:44:33.000Z,75.7
2022-09-17T07:45:49.000Z,75.4
2022-09-17T07:47:05.000Z,75.6
2022-09-17T07:48:22.000Z,75.1
2022-09-17T07:49:38.000Z,74.5
2022-09-17T07:50:53.000Z,74.2
2022-09-17T07:52:09.000Z,73.7
2022-09-17T07:53:26.000Z,73.5
2022-09-17T07:54:42.000Z,73.5
2022-09-17T07:55:58.000Z,73.2
2022-09-17T07:57:14.000Z,72.7
2022-09-17T07:58:31.000Z,71.3
2022-09-17T07:59:47.000Z,71.3
2022-09-17T08:01:03.000Z,71.1
2022-09-17T08:02:19.000Z,72
2022-09-17T08:03:35.000Z,70.8
2022-09-17T08:04:52.000Z,70.8
2022-09-17T08:06:08.000Z,71.6
2022-09-17T08:07:24.000Z,70.8
2022-09-17T08:08:39.000Z,69.9
2022-09-17T08:09:56.000Z,69.4
2022-09-17T08:11:12.000Z,68.5
2022-09-17T08:12:28.000Z,67.5
2022-09-17T08:13:44.000Z,68
2022-09-17T08:15:01.000Z,68.2
2022-09-17T08:17:33.000Z,67.3
2022-09-17T08:18:49.000Z,66.8
2022-09-17T08:20:05.000Z,66.8
2022-09-17T08:21:22.000Z,65.7
2022-09-17T08:22:38.000Z,66.6
2022-09-17T08:23:54.000Z,66.4
2022-09-17T08:25:09.000Z,63.9
2022-09-17T08:26:26.000Z,62.8
2022-09-17T08:27:42.000Z,60.3
2022-09-17T08:28:58.000Z,57.8
2022-09-17T08:30:14.000Z,55.9
2022-09-17T08:31:31.000Z,55.7
2022-09-17T08:32:47.000Z,55
2022-09-17T08:35:19.000Z,53.1
2022-09-17T08:36:36.000Z,54.8
2022-09-17T08:37:52.000Z,54.5
2022-09-17T08:39:08.000Z,53.9
2022-09-17T08:40:24.000Z,53
2022-09-17T08:41:39.000Z,50.8
2022-09-17T08:42:56.000Z,50.1
2022-09-17T08:44:12.000Z,52.8
2022-09-17T08:45:28.000Z,53.7
2022-09-17T08:46:44.000Z,51.3
2022-09-17T08:48:01.000Z,51.2
2022-09-17T08:49:17.000Z,50.9
2022-09-17T08:50:33.000Z,49.5
2022-09-17T08:51:49.000Z,49.5
2022-09-17T08:53:06.000Z,48.4
2022-09-17T08:54:22.000Z,48.4
2022-09-17T08:55:38.000Z,50.5
2022-09-17T08:56:54.000Z,50
2022-09-17T08:58:10.000Z,50.5
2022-09-17T08:59:26.000Z,49.8
2022-09-17T09:00:42.000Z,47.9
2022-09-17T09:01:58.000Z,46.8
2022-09-17T09:03:14.000Z,48.2
2022-09-17T09:04:31.000Z,48.8
2022-09-17T09:05:47.000Z,50.6
2022-09-17T09:08:19.000Z,56.7
2022-09-17T09:09:36.000Z,56.1
2022-09-17T09:10:52.000Z,51.7
2022-09-17T09:12:08.000Z,52.5
2022-09-17T09:13:24.000Z,52.7
2022-09-17T09:14:40.000Z,55
2022-09-17T09:15:56.000Z,55.6
2022-09-17T09:17:12.000Z,54.1
2022-09-17T09:18:28.000Z,53.2
2022-09-17T09:19:45.000Z,52.4
2022-09-17T09:21:01.000Z,53.3
2022-09-17T09:22:17.000Z,54.8
2022-09-17T09:23:33.000Z,55.5
2022-09-17T09:24:49.000Z,55.6
2022-09-17T09:26:06.000Z,54.2
2022-09-17T09:27:22.000Z,53.4
2022-09-17T09:28:38.000Z,53.1
2022-09-17T09:29:54.000Z,52.3
2022-09-17T09:31:11.000Z,51.6
2022-09-17T09:32:26.000Z,53.6
2022-09-17T09:33:42.000Z,55.8
2022-09-17T09:34:58.000Z,56.8
2022-09-17T09:36:15.000Z,57
2022-09-17T09:37:31.000Z,57.7
2022-09-17T09:38:47.000Z,58.4
2022-09-17T09:40:03.000Z,57
2022-09-17T09:41:20.000Z,54.2
2022-09-17T09:42:36.000Z,53.7
2022-09-17T09:43:52.000Z,53.4
2022-09-17T09:46:24.000Z,47.8
2022-09-17T09:47:41.000Z,48.5
2022-09-17T09:48:56.000Z,49.8
2022-09-17T09:50:12.000Z,50.6
2022-09-17T09:51:28.000Z,47.4
2022-09-17T09:52:45.000Z,46.5
2022-09-17T09:54:01.000Z,45.3
2022-09-17T09:56:33.000Z,44.5
2022-09-17T09:59:06.000Z,48.5
2022-09-17T10:01:37.000Z,52.4
2022-09-17T10:02:53.000Z,53.8
2022-09-17T10:04:08.000Z,55.6
2022-09-17T10:05:24.000Z,54.8
2022-09-17T10:06:40.000Z,50.5
2022-09-17T10:09:13.000Z,44.6
2022-09-17T10:10:29.000Z,43.9
2022-09-17T10:11:45.000Z,40.8
2022-09-17T10:13:01.000Z,41.2
2022-09-17T10:14:18.000Z,42.6
2022-09-17T10:15:34.000Z,44.7
2022-09-17T10:16:50.000Z,49
2022-09-17T10:18:06.000Z,47.2
2022-09-17T10:19:23.000Z,47.5
2022-09-17T10:20:38.000Z,47.7
2022-09-17T10:21:54.000Z,50
2022-09-17T10:24:27.000Z,56
2022-09-17T10:25:42.000Z,63.3
2022-09-17T10:26:58.000Z,65.2
2022-09-17T10:28:13.000Z,68.3
2022-09-17T10:29:30.000Z,70.5
2022-09-17T10:30:46.000Z,70.5
2022-09-17T10:32:02.000Z,73.1
2022-09-17T10:33:18.000Z,70.9
2022-09-17T10:34:34.000Z,71.1
2022-09-17T10:35:51.000Z,67.3
2022-09-17T10:37:07.000Z,63.5
2022-09-17T10:39:39.000Z,56.9
2022-09-17T10:40:56.000Z,58.4
2022-09-17T10:42:12.000Z,58.4
2022-09-17T10:43:28.000Z,57.9
2022-09-17T10:44:43.000Z,56.6
2022-09-17T10:46:00.000Z,56.3
2022-09-17T10:47:16.000Z,56.9
2022-09-17T10:49:48.000Z,52.7
2022-09-17T10:52:21.000Z,53
2022-09-17T10:53:37.000Z,53.6
2022-09-17T10:54:53.000Z,54.5
2022-09-17T10:56:09.000Z,53.7
2022-09-17T10:57:26.000Z,53.5
2022-09-17T10:58:42.000Z,51.4
2022-09-17T10:59:58.000Z,52.5
2022-09-17T11:02:30.000Z,55.5
2022-09-17T11:03:46.000Z,53.7
2022-09-17T11:05:02.000Z,52.1
2022-09-17T11:06:18.000Z,51.5
2022-09-17T11:07:35.000Z,49.6
2022-09-17T11:08:51.000Z,50.4
2022-09-17T11:10:07.000Z,48.2
2022-09-17T11:11:23.000Z,52
2022-09-17T11:12:40.000Z,50.3
2022-09-17T11:15:12.000Z,47.5
2022-09-17T11:16:28.000Z,48.9
2022-09-17T11:17:43.000Z,50.5
2022-09-17T11:19:00.000Z,52.7
2022-09-17T11:20:16.000Z,51.8
2022-09-17T11:21:32.000Z,53
2022-09-17T11:22:48.000Z,50.8
2022-09-17T11:24:05.000Z,51.5
2022-09-17T11:25:21.000Z,50.5
2022-09-17T11:27:53.000Z,52.6
2022-09-17T11:29:10.000Z,51.5
2022-09-17T11:30:26.000Z,50.5
2022-09-17T11:31:42.000Z,49.8
2022-09-17T11:32:58.000Z,49.9
2022-09-17T11:34:14.000Z,49.9
2022-09-17T11:35:30.000Z,51.6
2022-09-17T11:36:46.000Z,50
2022-09-17T11:38:02.000Z,48.8
2022-09-17T11:40:35.000Z,45.9
2022-09-17T11:41:51.000Z,47.1
2022-09-17T11:43:07.000Z,46.6
2022-09-17T11:44:23.000Z,46.5
2022-09-17T11:45:40.000Z,46.5
2022-09-17T11:46:56.000Z,45.5
2022-09-17T11:48:12.000Z,45
2022-09-17T11:49:28.000Z,43
2022-09-17T11:50:44.000Z,41.8
2022-09-17T11:52:00.000Z,41.7
2022-09-17T11:53:16.000Z,42.4
2022-09-17T11:54:31.000Z,41.3
2022-09-17T11:55:47.000Z,41
2022-09-17T11:57:03.000Z,41.8
2022-09-17T11:58:19.000Z,41.9
2022-09-17T11:59:35.000Z,41.3
2022-09-17T12:00:51.000Z,42.3
2022-09-17T12:02:08.000Z,42.9
2022-09-17T12:03:24.000Z,42.4
2022-09-17T12:05:56.000Z,43.9
2022-09-17T12:07:13.000Z,42.5
2022-09-17T12:08:29.000Z,41.8
2022-09-17T12:09:45.000Z,45.4
2022-09-17T12:11:01.000Z,45.2
2022-09-17T12:12:17.000Z,45.5
2022-09-17T12:13:33.000Z,44.7
2022-09-17T12:14:49.000Z,44.2
2022-09-17T12:16:05.000Z,44.1
2022-09-17T12:18:38.000Z,46.7
2022-09-17T12:19:53.000Z,44.2
2022-09-17T12:21:08.000Z,44.2
2022-09-17T12:22:25.000Z,43.5
2022-09-17T12:23:41.000Z,44.6
2022-09-17T12:24:57.000Z,44.5
2022-09-17T12:26:13.000Z,45.5
2022-09-17T12:27:29.000Z,44.6
2022-09-17T12:28:46.000Z,45.1
2022-09-17T12:30:02.000Z,46.8
2022-09-17T12:31:18.000Z,48.3
2022-09-17T12:32:34.000Z,47.5
2022-09-17T12:33:50.000Z,47
2022-09-17T12:35:05.000Z,52.2
2022-09-17T12:36:21.000Z,53.3
2022-09-17T12:37:37.000Z,59.4
2022-09-17T12:38:54.000Z,62.1
2022-09-17T12:40:10.000Z,64.6
2022-09-17T12:41:26.000Z,64.7
2022-09-17T12:43:59.000Z,71.8
2022-09-17T12:45:15.000Z,74.1
2022-09-17T12:46:31.000Z,75.5
2022-09-17T12:47:47.000Z,72.8
2022-09-17T12:49:03.000Z,74.8
2022-09-17T12:50:20.000Z,75
2022-09-17T12:51:35.000Z,77.4
2022-09-17T12:52:51.000Z,76
2022-09-17T12:54:07.000Z,72.8
2022-09-17T12:55:24.000Z,72.9
2022-09-17T12:56:40.000Z,72.3
2022-09-17T12:57:56.000Z,68.9
2022-09-17T12:59:12.000Z,64.7
2022-09-17T13:00:29.000Z,64.7
2022-09-17T13:01:44.000Z,66.8
2022-09-17T13:02:59.000Z,62.1
2022-09-17T13:04:15.000Z,62.3
2022-09-17T13:05:32.000Z,59.6
2022-09-17T13:06:48.000Z,60.1
2022-09-17T13:09:20.000Z,60.6
2022-09-17T13:10:36.000Z,62.9
2022-09-17T13:11:53.000Z,64.6
2022-09-17T13:13:09.000Z,64.7
2022-09-17T13:14:25.000Z,65.1
2022-09-17T13:15:41.000Z,63.4
2022-09-17T13:16:58.000Z,62.1
2022-09-17T13:18:14.000Z,62.5
2022-09-17T13:19:29.000Z,61.6
2022-09-17T13:22:02.000Z,59.1
2022-09-17T13:23:17.000Z,58.9
2022-09-17T13:24:33.000Z,59.7
2022-09-17T13:25:49.000Z,58.4
2022-09-17T13:27:06.000Z,58.2
2022-09-17T13:28:22.000Z,58.1
2022-09-17T13:29:38.000Z,60.1
2022-09-17T13:30:54.000Z,59.7
2022-09-17T13:32:11.000Z,62.9
2022-09-17T13:33:27.000Z,63.8
2022-09-17T13:34:43.000Z,63.9
2022-09-17T13:35:59.000Z,65.4
2022-09-17T13:37:15.000Z,71.6
2022-09-17T13:38:30.000Z,72.7
2022-09-17T13:41:02.000Z,71.4
2022-09-17T13:42:18.000Z,72.5
2022-09-17T13:43:35.000Z,72.2
2022-09-17T13:44:51.000Z,71.4
2022-09-17T13:47:23.000Z,73
2022-09-17T13:48:40.000Z,75
2022-09-17T13:49:56.000Z,72.7
2022-09-17T13:51:12.000Z,73.9
2022-09-17T13:52:28.000Z,72.9
2022-09-17T13:53:44.000Z,73.8
2022-09-17T13:54:59.000Z,74
2022-09-17T13:56:15.000Z,75.5
2022-09-17T13:57:31.000Z,72.3
2022-09-17T14:00:04.000Z,73.6
2022-09-17T14:01:20.000Z,71
2022-09-17T14:02:36.000Z,71.5
2022-09-17T14:03:53.000Z,72.5
2022-09-17T14:05:09.000Z,73.9
2022-09-17T14:06:25.000Z,73.4
2022-09-17T14:07:41.000Z,74.3
2022-09-17T14:08:57.000Z,72.4
2022-09-17T14:10:14.000Z,70.9
2022-09-17T14:11:29.000Z,71.4
2022-09-17T14:12:45.000Z,71.4
2022-09-17T14:14:01.000Z,71.7
2022-09-17T14:15:18.000Z,72.7
2022-09-17T14:16:34.000Z,73
2022-09-17T14:17:50.000Z,73.4
2022-09-17T14:19:06.000Z,73.6
2022-09-17T14:20:23.000Z,74.5
2022-09-17T14:21:38.000Z,73.1
2022-09-17T14:22:53.000Z,73.4
2022-09-17T14:24:09.000Z,73.8
2022-09-17T14:25:26.000Z,72.5
2022-09-17T14:26:42.000Z,73.8
2022-09-17T14:29:14.000Z,73.6
2022-09-17T14:30:30.000Z,73
2022-09-17T14:31:47.000Z,73.3
2022-09-17T14:33:03.000Z,72.5
2022-09-17T14:34:19.000Z,72.8
2022-09-17T14:35:35.000Z,72.7
2022-09-17T14:38:08.000Z,72.9
2022-09-17T14:39:23.000Z,74
2022-09-17T14:40:38.000Z,73.5
2022-09-17T14:41:55.000Z,73.3
2022-09-17T14:43:11.000Z,73.3
2022-09-17T14:44:27.000Z,71.9
2022-09-17T14:45:43.000Z,73.2
2022-09-17T14:47:00.000Z,73.7
2022-09-17T14:48:16.000Z,72.8
2022-09-17T14:49:32.000Z,73.3
2022-09-17T14:50:48.000Z,71.2
2022-09-17T14:52:04.000Z,70.9
2022-09-17T14:53:20.000Z,70.9
2022-09-17T14:54:35.000Z,70.5
2022-09-17T14:55:51.000Z,70.6
2022-09-17T14:57:07.000Z,70.3
2022-09-17T14:58:24.000Z,69
2022-09-17T14:59:40.000Z,69.1
2022-09-17T15:00:56.000Z,70
2022-09-17T15:03:29.000Z,70.7
2022-09-17T15:04:45.000Z,71.8
2022-09-17T15:06:01.000Z,73
2022-09-17T15:07:17.000Z,72.1
2022-09-17T15:08:34.000Z,74
2022-09-17T15:09:50.000Z,74.2
2022-09-17T15:11:05.000Z,75.7
2022-09-17T15:12:21.000Z,73.9
2022-09-17T15:13:37.000Z,74.7
2022-09-17T15:16:10.000Z,74.4
2022-09-17T15:17:25.000Z,73.6
2022-09-17T15:18:41.000Z,75.1
2022-09-17T15:19:57.000Z,73.9
2022-09-17T15:21:13.000Z,71.7
2022-09-17T15:22:29.000Z,73.8
2022-09-17T15:23:45.000Z,72.5
2022-09-17T15:25:02.000Z,72.9
2022-09-17T15:26:18.000Z,73.8
2022-09-17T15:27:34.000Z,73.9
2022-09-17T15:28:50.000Z,73.6
2022-09-17T15:30:07.000Z,72.8
2022-09-17T15:31:23.000Z,73.7
2022-09-17T15:32:38.000Z,75.2
2022-09-17T15:33:53.000Z,74.9
2022-09-17T15:35:10.000Z,74.1
2022-09-17T15:36:26.000Z,73.1
2022-09-17T15:37:42.000Z,73.5
2022-09-17T15:38:58.000Z,73.7
2022-09-17T15:40:14.000Z,73.3
2022-09-17T15:41:31.000Z,72.8
2022-09-17T15:42:47.000Z,72.8
2022-09-17T15:44:03.000Z,71.8
2022-09-17T15:45:19.000Z,72.9
2022-09-17T15:46:36.000Z,73.4
2022-09-17T15:47:52.000Z,72.3
2022-09-17T15:49:08.000Z,71.6
2022-09-17T15:50:23.000Z,72
2022-09-17T15:51:40.000Z,71.2
2022-09-17T15:54:12.000Z,71.4
2022-09-17T15:55:28.000Z,71.4
2022-09-17T15:56:45.000Z,72.7
2022-09-17T15:58:01.000Z,73.6
2022-09-17T15:59:17.000Z,73.3
2022-09-17T16:00:33.000Z,73.8
2022-09-17T16:01:49.000Z,73.5
2022-09-17T16:03:06.000Z,73.3
2022-09-17T16:05:38.000Z,71.8
2022-09-17T16:06:53.000Z,72.1
2022-09-17T16:08:10.000Z,72.8
2022-09-17T16:09:26.000Z,72
2022-09-17T16:10:42.000Z,73.1
2022-09-17T16:11:58.000Z,73.3
2022-09-17T16:13:15.000Z,73
2022-09-17T16:14:31.000Z,71.1
2022-09-17T16:15:47.000Z,71.9
2022-09-17T16:17:03.000Z,70.6
2022-09-17T16:18:19.000Z,70.5
2022-09-17T16:19:36.000Z,71.9
2022-09-17T16:20:52.000Z,71.6
2022-09-17T16:22:08.000Z,70.7
2022-09-17T16:23:23.000Z,70.5
2022-09-17T16:24:40.000Z,70.8
2022-09-17T16:25:56.000Z,70.2
2022-09-17T16:27:12.000Z,68.6
2022-09-17T16:28:28.000Z,69.7
2022-09-17T16:29:45.000Z,70.5
2022-09-17T16:31:01.000Z,69.8
2022-09-17T16:32:17.000Z,70.5
2022-09-17T16:33:33.000Z,70.3
2022-09-17T16:34:50.000Z,70
2022-09-17T16:36:06.000Z,70
2022-09-17T16:37:22.000Z,68.6
2022-09-17T16:38:38.000Z,69.4
2022-09-17T16:39:53.000Z,69.7
2022-09-17T16:41:10.000Z,69.5
2022-09-17T16:42:26.000Z,69
2022-09-17T16:43:42.000Z,69.4
2022-09-17T16:44:58.000Z,69
2022-09-17T16:46:15.000Z,69.6
2022-09-17T16:47:31.000Z,70
2022-09-17T16:48:47.000Z,70.8
2022-09-17T16:50:03.000Z,71.5
2022-09-17T16:51:20.000Z,71.5
2022-09-17T16:52:36.000Z,71.1
2022-09-17T16:53:52.000Z,71.4
2022-09-17T16:55:08.000Z,71.9
2022-09-17T16:56:24.000Z,71.9
2022-09-17T16:57:40.000Z,71.4
2022-09-17T16:58:56.000Z,72
2022-09-17T17:01:28.000Z,71.9
2022-09-17T17:02:45.000Z,71.9
2022-09-17T17:04:01.000Z,71.1
2022-09-17T17:05:17.000Z,71.3
2022-09-17T17:06:33.000Z,71.3
2022-09-17T17:07:50.000Z,71.8
2022-09-17T17:09:06.000Z,70.6
2022-09-17T17:10:22.000Z,70.6
2022-09-17T17:11:38.000Z,70.4
2022-09-17T17:12:54.000Z,70.7
2022-09-17T17:14:10.000Z,70.1
2022-09-17T17:15:26.000Z,69.3
2022-09-17T17:16:42.000Z,68.8
2022-09-17T17:17:59.000Z,68.3
2022-09-17T17:19:15.000Z,68.8
2022-09-17T17:20:31.000Z,69.2
2022-09-17T17:23:03.000Z,69.4
2022-09-17T17:24:20.000Z,68.3
2022-09-17T17:25:36.000Z,68.5
2022-09-17T17:26:52.000Z,68.7
2022-09-17T17:28:08.000Z,68.8
2022-09-17T17:29:24.000Z,68.2
2022-09-17T17:30:40.000Z,67.2
2022-09-17T17:31:56.000Z,67.7
2022-09-17T17:33:12.000Z,67.1
2022-09-17T17:34:29.000Z,66.8
2022-09-17T17:35:45.000Z,66.5
2022-09-17T17:37:01.000Z,66.8
2022-09-17T17:38:17.000Z,67.3
2022-09-17T17:39:33.000Z,67.7
2022-09-17T17:40:50.000Z,67.8
2022-09-17T17:42:06.000Z,67.5
2022-09-17T17:43:22.000Z,67.4
2022-09-17T17:44:38.000Z,66.8
2022-09-17T17:45:54.000Z,66.5
2022-09-17T17:47:10.000Z,67
2022-09-17T17:48:26.000Z,66.8
2022-09-17T17:49:42.000Z,66.7
2022-09-17T17:50:59.000Z,66.8
2022-09-17T17:52:15.000Z,66.7
2022-09-17T17:53:31.000Z,67.1
2022-09-17T17:54:47.000Z,67.6
2022-09-17T17:56:04.000Z,67.5
2022-09-17T17:57:20.000Z,68
2022-09-17T17:58:36.000Z,68.2
2022-09-17T17:59:52.000Z,68
2022-09-17T18:01:08.000Z,68
2022-09-17T18:02:24.000Z,68.7
2022-09-17T18:03:40.000Z,68.7
2022-09-17T18:04:56.000Z,69
2022-09-17T18:06:12.000Z,68.8
2022-09-17T18:07:29.000Z,68.8
2022-09-17T18:08:45.000Z,68.6
2022-09-17T18:10:01.000Z,68.2
2022-09-17T18:11:17.000Z,68
2022-09-17T18:13:50.000Z,68.2